Dies ist die Übersicht über die aktuellen Messwerte der DWD-Stationen.

Eine Auf/Abwärtssortierung der Messwerte, ist durch einen Klick auf den gewünschten Messwert im Tabellenkopf möglich (z.B. Klick auf "Temperatur 2m in °C" ändert Sortierung auf/absteigend).

Station letzte Meldung Temperatur 2m in °C Taupunkt 2m in °C Feuchte 2m in % Temperatur 5cm in °C Mittelwind in km/h Spitzenböen in km/h Windrichtung in ° Luftdruck in hpa Sonnenscheindauer in Minuten Niederschlag in mm Sichtweite in km Neuschnee in cm Schneehöhe Gesamt in cm
Aachen-Orsbach 13:00 17.2 09.0 59.0 22.1 12.0 23.0 330 1023 44.0 00.0 52.4
Ahaus 13:00 15.6 10.4 71.0 18.4 15.0 23.0 320 1023 00.0 00.0 38.4
Alfeld 13:00
Altenstadt 13:00 18.5 08.6 53.0 14.0 010
Andernach 13:00 19.5 07.6 46.0 25.6 17.0 33.0 320 1022 55.0 00.0 41.9
Angermünde 13:00 17.2 12.7 75.0 19.6 19.0 32.0 280 1017 05.0 00.0 02.3 00
Arkona 13:00 17.1 10.0 63.0 22.9 17.0 28.0 300 1017 58.0 00.0 30.4
Artern 13:00 16.1 05.4 49.0 19.4 13.0 31.0 300 1021 00.0 00.0 70.0
Augsburg 13:00 17.8 07.3 50.0 21.7 10.0 16.0 020 1020 13.0 00.0 40.5
Bamberg 13:00 18.5 06.7 46.0 20.6 09.0 26.0 340 1020 14.0 00.0 70.0
Barth 13:00 16.2 11.3 73.0 18.9 13.0 25.0 280 1017 03.0 00.0 22.7
Baruth 13:00 14.6 10.8 78.0 14.9 22.0 40.0 280 1019 00.0 00.0 21.9
Belm 13:00 13.3 11.3 88.0 13.6 20.0 32.0 290 1022 00.0 00.0 12.6
Bergen 13:00 14.7 12.0 84.0 07.0 250 1021 10.0
Berlin-Dahlem (FU) 13:00 13.7 12.9 95.0 22.0 300 1019 10.0
Berlin-Schönefeld 13:00 13.9 12.6 92.0 14.1 28.0 39.0 280 1019 00.0 00.1 30.0
Berlin-Tegel 13:00 13.9 11.6 86.0 16.1 19.0 37.0 280 1019 00.0 00.0 25.0
Berlin-Tempelhof 13:00 14.7 11.6 82.0 14.9 22.0 38.0 290 1019 01.0 00.0
Berus 13:00 19.6 09.2 51.0 26.9 07.0 16.0 310 1021 31.0 00.0 21.7
Boizenburg 13:00 14.4 11.6 83.0 14.4 13.0 27.0 250 1019 00.0 00.0 10.3
Boltenhagen 13:00 13.8 12.9 94.0 14.2 15.0 31.0 300 1018 00.0 00.2 03.3
Bonn-Roleber 13:00 18.0 08.3 53.0 22.4 11.0 27.0 320 1022 31.0 00.0 46.2
Braunlage 13:00 10.2 06.0 75.0 12.6 10.0 25.0 300 1021 00.0 00.0 31.1
Braunschweig 13:00 13.9 09.9 77.0 14.5 21.0 35.0 290 1021 00.0 00.0 22.1
Bremen 13:00 14.3 12.1 87.0 15.1 22.0 39.0 290 1021 00.0 00.0 25.0
Bremerhaven 13:00 14.4 12.4 88.0 14.3 36.0 45.0 310 1021 00.0 00.0 10.5
Bremervörde 13:00 15.1 11.5 79.0 16.2 16.0 32.0 290 1020 00.0 00.0
Brocken 13:00 05.5 05.3 99.0 06.7 32.0 42.0 290 00.0 00.0
Büchel (Flugplatz) 13:00 16.8 06.1 49.0 14.0 320 1022 25.0
Bückeburg 13:00 13.5 11.9 90.0 22.0 290 1022
Carlsfeld 13:00 10.2 06.7 79.0 11.4 07.0 22.0 340 00.0 00.0 70.0
Celle 13:00 13.4 12.1 92.0 14.0 260 1021 04.5
Chieming 13:00 17.7 09.8 60.0 24.6 08.0 13.0 260 1019 11.0 00.0 20.0
Cottbus 13:00 13.9 11.8 87.0 14.3 13.0 27.0 270 1019 00.0 00.5 38.8
Cuxhaven 13:00 14.9 11.9 82.0 16.3 26.0 41.0 300 1020 00.0 00.0 40.8
Deuselbach 13:00 17.0 07.4 53.0 22.8 11.0 21.0 290 1021 29.0 00.0 40.1
Diepholz 13:00 13.9 12.0 88.0 14.0 17.0 32.0 300 1022 00.0 00.1 14.6
Doberlug-Kirchhain 13:00 14.9 10.1 73.0 16.7 21.0 36.0 290 1020 00.0 00.0 50.3
Dörnick 13:00 15.3 11.7 79.0 16.4 14.0 30.0 300 1018 00.0 00.0 45.6
Dresden-Klotzsche 13:00 14.1 09.1 72.0 16.5 19.0 36.0 290 1020 01.0 00.0 35.0
Düsseldorf 13:00 17.9 08.7 55.0 19.7 16.0 26.0 330 1023 03.0 00.0 45.0
Eisenach 13:00 15.4 04.9 50.0 18.8 16.0 27.0 290 1021 00.0 00.0 26.4
Elpersbüttel 13:00 15.1 10.9 76.0 16.5 27.0 41.0 310 1020 03.0 00.0
Emden 13:00 14.1 12.9 92.0 14.7 18.0 30.0 310 1022 00.0 00.0 17.2
Erfurt-Weimar 13:00 16.5 06.6 52.0 20.2 18.0 31.0 320 1020 03.0 00.0 80.0
Essen-Bredeney 13:00 16.4 09.0 62.0 19.7 10.0 23.0 320 1023 00.0 00.0 53.7
Faßberg 13:00 13.4 11.4 88.0 18.0 280 1020 10.0
Fehmarn 13:00 15.0 11.2 78.0 17.7 23.0 29.0 300 1018 00.0 00.0 16.0
Feldberg/Mecklenburg 13:00 14.6 13.0 90.0 17.5 14.0 26.0 300 1017 04.0 00.9 13.1
Feldberg/Schwarzwald 13:00 10.4 06.6 77.0 18.7 14.0 24.0 010 55.0 00.0 18.4 00
Feuchtwangen-Heilbronn 13:00 19.0 06.8 45.0 27.3 13.0 32.0 340 1020 42.0 00.0 30.6
Fichtelberg 13:00 05.8 04.7 93.0 06.1 28.0 47.0 290 00.0 45.0
Frankfurt/Main 13:00 20.9 08.1 44.0 23.9 15.0 40.0 280 1021 26.0 00.0 40.0
Freiburg 13:00 20.2 09.4 50.0 29.5 13.0 23.0 330 1020 58.0 00.0 57.0
Freudenstadt 13:00 15.9 07.2 56.0 19.8 09.0 18.0 040 05.0 00.0 60.6
Friesoythe-Altenoythe 13:00 14.1 13.2 94.0 15.4 16.0 28.0 300 1022 00.0 00.6
Fritzlar (Flugplatz) 13:00
Fürstenzell 13:00 17.3 06.6 49.0 22.2 14.0 26.0 270 1019 30.0 00.0 19.7
Gardelegen 13:00 14.1 11.5 84.0 14.7 12.0 23.0 260 1020 00.0 00.1 13.7
Garmisch-Partenkirchen 13:00 18.9 09.5 54.0 25.3 13.0 30.0 040 1017 30.0 00.0 43.8
Geilenkirchen (Flugplatz) 13:00
Geisenheim 13:00 20.4 08.4 46.0 24.5 16.0 28.0 330 1021 51.0 00.0 25.4
Gelbelsee 13:00 16.1 07.8 58.0 19.5 12.0 21.0 310 1020 02.0 00.0 45.5
Genthin 13:00 14.3 10.9 80.0 15.3 14.0 29.0 280 1020 00.0 00.1 35.9
Gera-Leumnitz 13:00 15.7 06.2 53.0 18.1 14.0 24.0 300 1020 00.0 00.0 48.0
Gießen/Wettenberg 13:00 18.6 08.0 50.0 20.9 18.0 31.0 300 1021 11.0 00.0 33.0
Glücksburg-Meierwik 13:00 16.3 11.1 71.0 29.0 310 1018 20.0
Goldberg 13:00 14.0 11.7 86.0 13.9 14.0 23.0 300 1018 00.0 00.0 45.3
Görlitz 13:00 12.3 11.6 95.0 13.8 15.0 31.0 280 1019 00.0 00.0 15.0
Gottfrieding 13:00 18.0 07.2 49.0 21.8 11.0 20.0 290 1020 12.0 00.0 25.7
Göttingen 13:00 14.5 08.2 66.0 16.7 17.0 27.0 290 1022 00.0 00.0 47.8
Greifswald 13:00 17.1 11.2 68.0 20.1 15.0 24.0 290 1017 02.0 00.0 45.0
Greifswalder Oie 13:00 17.5 11.6 68.0 21.1 08.0 17.0 020 1017 11.0 00.0 24.7
Großer Arber 13:00 08.0 04.4 78.0 15.0 23.0 270 01.0 00.0 10.5
Grünow 13:00
Hahn 13:00 16.8 08.1 56.0 22.1 10.0 22.0 350 1021 41.0 00.0
Hamburg-Fuhlsbüttel 13:00 15.3 11.4 78.0 16.6 18.0 290 1019 00.0 50.0
Hannover 13:00 14.5 11.4 82.0 15.8 21.0 33.0 290 1021 00.0 00.0 12.0
Harburg 13:00 16.7 08.2 57.0 21.8 16.0 25.0 310 1020 00.0 00.0 51.6
Harzgerode 13:00 12.4 06.9 69.0 14.6 08.0 22.0 300 1021 00.0 00.0 42.1
Helgoland 13:00 14.4 11.0 80.0 18.3 33.0 41.0 310 1021 26.0 00.0 13.8
Hersfeld, Bad 13:00 17.5 07.8 53.0 22.5 13.0 26.0 340 1021 00.0 00.0 15.8
Hof 13:00 15.2 07.5 60.0 17.9 08.0 17.0 330 1019 04.0 00.0 50.6
Hohenpeißenberg 13:00 15.1 07.2 59.0 20.5 14.0 25.0 020 48.0 00.0 30.0
Hoherodskopf/Vogelsberg 13:00 13.1 07.7 70.0 17.1 16.0 26.0 310 1021 32.0 00.0 26.9
Hohn 13:00 15.5 10.7 73.0 22.0 310 1019 30.0
Holzdorf (Flugplatz) 13:00 15.6 10.1 70.0 22.0 270 1020 25.0
Hoyerswerda 13:00 13.6 12.4 92.0 14.6 24.0 36.0 280 1019 00.0 00.1 12.7
Idar-Oberstein 13:00 18.4 07.6 49.0 11.0 340 1021 40.0
Ingolstadt (Flugplatz) 13:00 17.8 06.5 48.0 07.0 320 1020 08.0
Itzehoe 13:00 15.1 11.6 80.0 15.6 11.0 31.0 330 1019 00.0 00.0 56.1
Kahler Asten 13:00 10.0 06.1 77.0 11.9 19.0 32.0 310 00.0 00.0 46.2
Kaisersbach-Cronhütte 13:00 15.9 06.5 54.0 18.1 08.0 16.0 280 1021 00.0 00.0 60.5
Kempten 13:00 17.8 07.8 52.0 21.7 08.0 17.0 1018 20.0 00.0 36.3
Kiel-Holtenau 13:00 16.3 11.3 72.0 17.8 17.0 31.0 310 1018 00.0 00.0 23.2
Kissingen, Bad 13:00 18.9 06.4 44.0 22.4 18.0 35.0 300 1020 22.0 00.0 45.3
Kleiner Feldberg/Taunus 13:00 14.8 07.7 62.0 20.0 10.0 26.0 300 13.0 00.0 26.3
Klippeneck 13:00 16.2 06.6 53.0 21.3 10.0 26.0 310 08.0 00.0 50.1
Koblenz (Falckensteinkaserne) 13:00
Köln-Bonn 13:00 18.4 08.6 53.0 22.9 18.0 28.0 330 1022 20.0 00.0 50.0
Konstanz 13:00 22.6 07.9 39.0 28.4 10.0 22.0 360 1018 60.0 00.0 31.5
Kümmersbruck 13:00 16.8 07.1 53.0 11.0 310 1020 40.0
Kyritz 13:00 14.3 11.4 83.0 14.5 16.0 30.0 270 1019 00.0 00.0 48.4
Laage (Flugplatz) 13:00 14.3 12.5 89.0 18.0 280 1018 09.0
Lahr 13:00 20.0 09.6 51.0 22.5 12.0 25.0 350 1021 28.0 00.0 48.0
Landsberg (Flugplatz) 13:00 18.0 06.6 47.0 11.0 360 1019 05.0
Laupheim 13:00 18.1 06.0 45.0 07.0 300 1019 30.0
Lautertal-Oberlauter 13:00 17.2 06.9 51.0 20.1 15.0 27.0 310 1020 00.0 00.0 48.8
Lechfeld 13:00 17.6 06.4 48.0 07.0 340 1019 08.0
Leck 13:00 14.5 11.0 80.0 15.2 23.0 40.0 300 1019 00.0 00.0
Leinefelde 13:00 13.3 06.2 62.0 15.0 15.0 27.0 290 1021 00.0 00.0 48.2
Leipzig-Holzhausen 13:00 15.1 09.6 70.0 16.3 10.0 23.0 310 1020 00.0 00.0 41.6
Leipzig/Halle 13:00 14.9 09.4 70.0 14.5 17.0 30.0 330 1020 00.0 00.0 45.0
Leutkirch-Herlazhofen 13:00 18.2 09.3 56.0 23.6 10.0 19.0 360 1018 28.0 00.0 33.7
Lichtenhain-Mittelndorf 13:00 12.3 08.5 78.0 13.6 14.0 35.0 290 1020 00.0 00.0 31.7
Lindenberg 13:00 13.3 11.7 90.0 13.7 17.0 32.0 280 1018 00.0 00.1 30.0
Lingen 13:00 14.8 11.0 78.0 15.0 14.0 24.0 290 1023 00.0 00.0
Lippspringe, Bad 13:00 13.7 09.9 78.0 15.9 13.0 26.0 270 1022 00.0 00.0 20.7
List auf Sylt 13:00 14.4 10.9 80.0 16.1 37.0 47.0 320 1019 00.0 00.0 10.9 00
Lübeck-Blankensee 13:00 15.4 11.8 79.0 15.5 11.0 23.0 270 1019 00.0 00.0 34.5
Lüchow 13:00 14.2 13.1 93.0 14.7 09.0 26.0 270 1020 00.0 00.4 03.1
Lüdenscheid 13:00 14.6 07.8 64.0 17.1 07.0 29.0 310 1023 00.0 00.0 48.5
Lügde-Paenbruch 13:00 12.8 11.0 89.0 14.2 14.0 29.0 280 1022 00.0 00.1 20.8
Magdeburg 13:00 14.4 10.9 80.0 13.9 08.0 21.0 290 1021 00.0 00.0 19.4
Mannheim 13:00 20.3 07.7 44.0 26.2 09.0 20.0 010 1021 27.0 00.0 35.1
Manschnow 13:00 15.0 14.4 96.0 15.8 16.0 29.0 280 1018 00.0 02.4
Marienberg 13:00
Marienberg, Bad 13:00 15.4 06.6 56.0 19.8 13.0 28.0 310 1021 08.0 00.0 26.1
Marnitz 13:00 14.4 10.7 78.0 14.1 17.0 28.0 280 1019 00.0 00.0 56.1
Meiningen 13:00 15.7 07.3 57.0 21.3 19.0 32.0 340 1020 01.0 00.0 22.1
Meßstetten 13:00 14.7 06.1 56.0 20.9 13.0 24.0 330 19.0 00.0 49.6
Michelstadt-Vielbrunn 13:00 17.6 09.0 57.0 22.1 13.0 33.0 290 1020 42.0 00.0 27.2
Mühlacker 13:00 19.7 06.7 43.0 23.0 12.0 23.0 350 1021 42.0 00.0 59.0
Mühldorf 13:00 18.0 05.8 45.0 22.1 08.0 16.0 270 1019 20.0 00.0 26.0
München-Flughafen 13:00 18.2 06.6 47.0 23.7 11.0 19.0 350 1019 16.0 00.0 50.0 00
München-Stadt 13:00 18.7 07.0 46.0 23.6 08.0 17.0 360 1019 37.0 00.0 45.3
Münster/Osnabrück 13:00 15.1 10.7 75.0 18.0 14.0 28.0 290 1023 00.0 00.0 40.0
Neu-Ulrichstein 13:00 17.1 07.2 52.0 20.9 16.0 27.0 290 1021 38.0 00.0 39.5
Neuburg/Donau (Flugplatz) 13:00 19.0 08.1 49.0 07.0 320 1020 45.0
Neuhaus am Rennweg 13:00 12.6 05.0 60.0 14.5 11.0 29.0 310 00.0 70.0
Neuhütten/Spessart 13:00 16.8 07.7 55.0 19.9 10.0 22.0 350 1021 24.0 00.0 27.2
Neuruppin 13:00 14.8 11.2 79.0 15.5 12.0 27.0 280 1019 00.0 00.0 10.5
Niederstetten 13:00 18.0 05.6 44.0 14.0 360 1020 60.0
Norderney 13:00 14.3 12.9 91.0 15.2 30.0 39.0 330 1022 00.0 00.0
Nordholz (Flugplatz) 13:00 15.0 10.9 76.0 25.0 320 1020 15.0
Nörvenich (Flugplatz) 13:00 18.2 07.1 48.0 18.0 320 1023 25.0
Nürburg-Barweiler 13:00 16.3 06.9 54.0 21.1 15.0 25.0 340 1022 52.0 00.0 09.5
Nürnberg 13:00 18.4 06.9 47.0 23.6 08.0 24.0 310 1020 13.0 00.0 50.0
Oberstdorf 13:00 17.8 08.5 54.0 19.2 10.0 26.0 350 23.0 00.0 39.3
Offenbach-Wetterpark 13:00 21.1 09.8 48.0 26.1 08.0 15.0 010 1021 11.0 00.0 36.1
Öhringen 13:00 19.0 07.3 47.0 23.3 10.0 20.0 290 1021 08.0 00.0 57.8
Oschatz 13:00 14.8 09.6 71.0 17.0 22.0 36.0 290 1020 02.0 00.0 35.9
Osterfeld 13:00 15.9 07.6 58.0 21.7 11.0 22.0 320 1020 00.0 00.0 11.4
Pelzerhaken 13:00 14.8 11.8 82.0 15.1 12.0 29.0 300 1018 00.0 00.0 11.2 00
Plauen 13:00 16.0 06.3 53.0 18.6 10.0 30.0 350 1020 01.0 00.0 65.2
Potsdam 13:00 13.7 12.1 90.0 14.0 18.0 30.0 290 1019 00.0 00.0 08.0
Putbus 13:00 17.6 10.9 65.0 22.5 13.0 26.0 290 1017 31.0 00.0 24.8
Quickborn 13:00 15.1 12.0 82.0 15.7 15.0 33.0 300 1019 00.0 00.0 37.4
Regensburg 13:00 18.7 06.0 43.0 23.3 10.0 19.0 260 1019 06.0 00.0 52.5
Rheine-Bentlage 13:00
Rheinstetten 13:00 20.9 07.0 41.0 25.9 08.0 22.0 360 1021 47.0 00.0 31.8
Rostock-Warnemünde 13:00 15.5 10.7 73.0 19.4 21.0 28.0 290 1018 05.0 00.0 40.9
Roth 13:00 16.9 07.8 55.0 18.6 10.0 18.0 290 1020 00.0 47.4
Saarbrücken-Ensheim 13:00 19.1 09.4 53.0 07.0 250 1021 00.0 50.0
Salzuflen, Bad 13:00 14.2 09.7 74.0 15.5 09.0 22.0 240 1022 00.0 00.0 44.0
Sankt Peter-Ording 13:00 14.9 10.6 75.0 16.6 33.0 46.0 320 1020 12.0 00.0 28.9
Schauenburg-Elgershausen 13:00 14.9 06.4 57.0 18.8 16.0 29.0 310 1022 02.0 00.0 39.9
Schleiz 13:00 13.9 05.4 57.0 16.3 15.0 27.0 320 1020 00.0 00.0 33.3
Schleswig 13:00 16.1 11.3 73.0 18.3 17.0 32.0 310 1019 02.0 00.0 35.0
Schleswig-Jagel 13:00 15.6 10.9 74.0 25.0 310 1019 09.0
Schmücke 13:00 11.7 05.0 63.0 13.7 12.0 27.0 290 03.0 00.0 53.4
Schönhagen (Ostseebad) 13:00 16.8 12.2 74.0 18.5 16.0 27.0 310 1018 19.0 00.0
Schwerin 13:00 15.1 10.7 75.0 16.2 15.0 29.0 280 1018 00.0 00.0 51.7
Seehausen 13:00 15.9 12.6 81.0 18.8 19.0 32.0 250 1019 09.0 00.0 33.6
Soltau 13:00 13.7 12.1 90.0 14.3 14.0 25.0 280 1021 00.0 00.0 34.9
Stötten 13:00 14.4 08.0 65.0 16.1 14.0 22.0 330 1020 00.0 00.0 29.2
Straubing 13:00 18.4 07.0 47.0 21.4 09.0 23.0 280 1019 16.0 00.0 70.0
Stuttgart (Schnarrenberg) 13:00 18.7 07.0 46.0 23.3 11.0 22.0 330 1021 13.0 00.0 13.7
Stuttgart-Echterdingen 13:00 18.1 07.5 50.0 23.9 11.0 22.0 320 1021 05.0 00.0 60.0
Tholey 13:00 19.2 08.5 50.0 25.2 08.0 20.0 290 1021 59.0 00.0 35.3
Trier-Petrisberg 13:00 20.1 06.5 41.0 25.7 06.0 17.0 300 1021 45.0 00.0 70.0
Trollenhagen 13:00 14.3 12.2 87.0 14.7 13.0 28.0 310 1018 00.0 00.2
Ueckermünde 13:00 17.8 10.9 64.0 22.3 11.0 22.0 300 1017 00.0 00.0 14.1
UFS Deutsche Bucht 13:00 13.0 11.7 92.0 32.0 47.0 330 1021 10.0
UFS TW Ems 13:00
Ulm-Mähringen 13:00 16.7 07.7 55.0 19.1 14.0 23.0 350 1020 18.0 00.0 51.4
Ummendorf 13:00 13.9 09.7 76.0 15.4 22.0 32.0 280 1021 00.0 00.0 43.2
Waibstadt 13:00 20.5 09.4 49.0 26.0 12.0 19.0 270 1021 21.0 00.0 35.4
Waldmünchen 13:00
Warburg 13:00 13.9 08.5 70.0 15.6 20.0 34.0 290 1022 00.0 00.0 31.4
Waren (Müritz) 13:00 14.1 12.7 91.0 15.7 13.0 27.0 280 1018 00.0 00.5 14.9
Wasserkuppe 13:00 12.0 05.7 65.0 14.3 13.0 28.0 280 03.0 00.0 70.0
Weiden 13:00 15.9 06.7 54.0 19.5 13.0 33.0 290 1020 00.0 00.0 37.7
Weihenstephan-Dürnast 13:00 18.2 06.4 46.0 23.5 09.0 28.0 320 1019 31.0 00.0 30.8
Weinbiet 13:00 16.6 09.1 61.0 19.5 06.0 15.0 330 1021 01.0 00.0 10.3
Weißenburg-Emetzheim 13:00 17.5 07.8 53.0 22.5 12.0 26.0 320 1020 14.0 00.0 63.5
Werl 13:00 15.3 09.0 66.0 17.7 10.0 21.0 300 1023 00.0 00.0 41.7
Wernigerode 13:00 14.4 08.3 67.0 16.0 14.0 29.0 300 1021 00.0 00.0 70.0
Wiesenburg 13:00 13.4 09.7 78.0 14.7 19.0 38.0 290 1020 01.0 00.0 50.5
Wittenberg 13:00 15.4 09.4 67.0 18.8 17.0 33.0 290 1020 07.0 00.0 43.6
Wittmundhafen 13:00 14.3 11.8 85.0 22.0 330 1022 08.0
Wunsiedel-Schönbrunn 13:00 13.8 06.6 62.0 14.9 17.0 30.0 290 1020 00.0 00.0 64.9
Wunstorf 13:00 13.7 12.1 90.0 18.0 260 1021
Würzburg 13:00 20.2 07.1 43.0 27.5 13.0 26.0 300 1020 36.0 00.0 43.5
Zinnwald-Georgenfeld 13:00 09.3 06.4 82.0 10.1 18.0 37.0 310 00.0 00.0 22.2 00
Zugspitze 13:00 -00.1 -00.4 98.0 11.0 33.0 360 07.0